createdAt,value
2023-04-27T00:01:45.539Z,38.56
2023-04-27T00:04:15.083Z,38.83
2023-04-27T00:06:42.977Z,38.43
2023-04-27T00:09:09.798Z,38.61
2023-04-27T00:11:36.652Z,39.17
2023-04-27T00:14:03.838Z,39.14
2023-04-27T00:16:30.814Z,39.27
2023-04-27T00:18:57.697Z,38.97
2023-04-27T00:21:24.471Z,39.34
2023-04-27T00:23:51.295Z,39.36
2023-04-27T00:26:18.116Z,39.46
2023-04-27T00:28:45.083Z,39.36
2023-04-27T00:31:12.058Z,39.84
2023-04-27T00:33:38.847Z,39.93
2023-04-27T00:36:06.036Z,39.79
2023-04-27T00:38:32.812Z,39.69
2023-04-27T00:41:01.409Z,40.09
2023-04-27T00:43:28.155Z,39.84
2023-04-27T00:45:55.015Z,39.89
2023-04-27T00:48:21.973Z,40.30
2023-04-27T00:50:48.913Z,39.98
2023-04-27T00:53:15.974Z,40.21
2023-04-27T00:55:42.720Z,40.47
2023-04-27T00:58:12.582Z,40.49
2023-04-27T01:00:40.381Z,40.40
2023-04-27T01:03:08.407Z,40.78
2023-04-27T01:05:36.378Z,40.50
2023-04-27T01:08:03.695Z,40.85
2023-04-27T01:10:30.457Z,40.53
2023-04-27T01:12:57.946Z,40.53
2023-04-27T01:15:24.723Z,40.62
2023-04-27T01:17:57.903Z,40.93
2023-04-27T01:20:25.028Z,41.13
2023-04-27T01:22:51.922Z,41.23
2023-04-27T01:25:20.426Z,41.01
2023-04-27T01:27:47.253Z,41.48
2023-04-27T01:30:14.242Z,41.52
2023-04-27T01:32:41.051Z,41.23
2023-04-27T01:35:08.151Z,41.27
2023-04-27T01:37:35.435Z,41.84
2023-04-27T01:40:02.208Z,41.73
2023-04-27T01:42:28.960Z,41.92
2023-04-27T01:44:55.729Z,41.83
2023-04-27T01:47:22.508Z,41.72
2023-04-27T01:49:52.493Z,41.73
2023-04-27T01:52:19.427Z,42.26
2023-04-27T01:54:46.200Z,42.11
2023-04-27T01:57:13.072Z,42.28
2023-04-27T01:59:39.841Z,42.38
2023-04-27T02:02:06.706Z,42.22
2023-04-27T02:04:34.345Z,42.10
2023-04-27T02:07:01.313Z,41.91
2023-04-27T02:09:28.181Z,42.28
2023-04-27T02:11:55.106Z,41.92
2023-04-27T02:14:22.010Z,42.13
2023-04-27T02:16:48.939Z,42.28
2023-04-27T02:19:16.202Z,42.12
2023-04-27T02:21:43.303Z,42.38
2023-04-27T02:24:10.292Z,42.57
2023-04-27T02:26:37.214Z,42.49
2023-04-27T02:29:04.407Z,42.50
2023-04-27T02:31:31.896Z,42.46
2023-04-27T02:33:58.866Z,42.50
2023-04-27T02:36:26.168Z,42.72
2023-04-27T02:38:53.069Z,42.31
2023-04-27T02:41:22.207Z,42.51
2023-04-27T02:43:51.859Z,42.61
2023-04-27T02:46:18.841Z,42.86
2023-04-27T02:48:46.022Z,42.92
2023-04-27T02:51:12.973Z,42.85
2023-04-27T02:53:39.881Z,43.22
2023-04-27T02:56:06.989Z,43.03
2023-04-27T02:58:36.139Z,43.00
2023-04-27T03:01:03.238Z,43.24
2023-04-27T03:03:30.476Z,42.95
2023-04-27T03:05:57.651Z,43.49
2023-04-27T03:08:26.809Z,43.57
2023-04-27T03:10:53.712Z,43.30
2023-04-27T03:13:21.206Z,43.42
2023-04-27T03:15:50.706Z,43.29
2023-04-27T03:18:17.642Z,43.34
2023-04-27T03:20:44.523Z,43.52
2023-04-27T03:23:12.453Z,43.59
2023-04-27T03:25:39.454Z,43.25
2023-04-27T03:28:07.046Z,43.30
2023-04-27T03:30:33.998Z,43.33
2023-04-27T03:33:00.941Z,43.30
2023-04-27T03:35:27.919Z,43.50
2023-04-27T03:37:54.948Z,43.18
2023-04-27T03:40:21.960Z,43.39
2023-04-27T03:42:48.889Z,43.17
2023-04-27T03:45:16.954Z,43.14
2023-04-27T03:47:43.823Z,43.25
2023-04-27T03:50:10.959Z,43.25
2023-04-27T03:52:37.919Z,43.72
2023-04-27T03:55:05.521Z,43.70
2023-04-27T03:57:32.403Z,43.98
2023-04-27T03:59:59.296Z,43.87
2023-04-27T04:02:28.192Z,43.62
2023-04-27T04:04:55.313Z,43.63
2023-04-27T04:07:22.276Z,43.46
2023-04-27T04:09:49.171Z,43.63
2023-04-27T04:12:16.037Z,43.67
2023-04-27T04:14:43.313Z,43.74
2023-04-27T04:17:11.355Z,43.68
2023-04-27T04:19:38.284Z,43.43
2023-04-27T04:22:05.351Z,43.90
2023-04-27T04:24:32.349Z,43.76
2023-04-27T04:26:59.469Z,43.45
2023-04-27T04:29:26.416Z,43.44
2023-04-27T04:31:53.350Z,43.54
2023-04-27T04:34:20.643Z,43.54
2023-04-27T04:36:47.756Z,43.34
2023-04-27T04:39:15.485Z,43.56
2023-04-27T04:41:42.666Z,43.39
2023-04-27T04:44:09.569Z,43.80
2023-04-27T04:46:37.771Z,43.59
2023-04-27T04:49:05.139Z,43.82
2023-04-27T04:51:32.168Z,43.96
2023-04-27T04:54:01.628Z,43.68
2023-04-27T04:56:28.801Z,43.85
2023-04-27T04:58:55.722Z,43.83
2023-04-27T05:01:22.708Z,43.59
2023-04-27T05:03:49.900Z,43.57
2023-04-27T05:06:17.134Z,43.56
2023-04-27T05:08:44.000Z,43.72
2023-04-27T05:11:11.761Z,44.13
2023-04-27T05:13:40.679Z,44.13
2023-04-27T05:16:08.160Z,43.92
2023-04-27T05:18:38.528Z,43.83
2023-04-27T05:21:05.869Z,44.34
2023-04-27T05:23:32.828Z,44.38
2023-04-27T05:25:59.725Z,44.44
2023-04-27T05:28:26.715Z,44.65
2023-04-27T05:30:53.657Z,44.76
2023-04-27T05:33:21.157Z,44.65
2023-04-27T05:35:48.074Z,44.50
2023-04-27T05:38:17.835Z,44.18
2023-04-27T05:40:44.842Z,44.54
2023-04-27T05:43:11.990Z,44.42
2023-04-27T05:45:40.491Z,44.10
2023-04-27T05:48:07.587Z,44.17
2023-04-27T05:50:34.613Z,43.72
2023-04-27T05:53:01.644Z,44.00
2023-04-27T05:55:28.895Z,43.80
2023-04-27T05:58:06.931Z,44.02
2023-04-27T06:00:38.894Z,43.61
2023-04-27T06:03:06.453Z,43.48
2023-04-27T06:05:36.980Z,43.20
2023-04-27T06:08:04.205Z,43.44
2023-04-27T06:10:31.204Z,43.43
2023-04-27T06:12:58.401Z,42.84
2023-04-27T06:15:25.485Z,42.67
2023-04-27T06:17:55.025Z,43.00
2023-04-27T06:20:22.430Z,42.61
2023-04-27T06:22:49.588Z,42.92
2023-04-27T06:25:16.651Z,42.61
2023-04-27T06:27:43.824Z,42.65
2023-04-27T06:30:13.913Z,42.50
2023-04-27T06:32:41.206Z,42.35
2023-04-27T06:35:08.702Z,42.42
2023-04-27T06:37:35.702Z,42.37
2023-04-27T06:40:02.883Z,41.94
2023-04-27T06:42:31.219Z,41.84
2023-04-27T06:44:59.059Z,42.13
2023-04-27T06:47:26.149Z,41.68
2023-04-27T06:49:53.390Z,41.69
2023-04-27T06:52:20.667Z,41.85
2023-04-27T06:54:48.017Z,42.01
2023-04-27T06:57:15.049Z,41.56
2023-04-27T06:59:42.234Z,41.86
2023-04-27T07:02:09.619Z,41.63
2023-04-27T07:04:38.699Z,41.90
2023-04-27T07:07:06.223Z,41.36
2023-04-27T07:09:36.795Z,41.51
2023-04-27T07:12:04.320Z,41.79
2023-04-27T07:14:31.955Z,41.40
2023-04-27T07:16:59.228Z,41.43
2023-04-27T07:19:26.760Z,41.92
2023-04-27T07:21:54.031Z,41.76
2023-04-27T07:24:21.701Z,41.92
2023-04-27T07:26:48.797Z,41.65
2023-04-27T07:29:26.301Z,41.63
2023-04-27T07:31:56.272Z,41.81
2023-04-27T07:34:23.882Z,42.10
2023-04-27T07:36:52.679Z,42.00
2023-04-27T07:39:20.177Z,41.75
2023-04-27T07:41:49.091Z,41.90
2023-04-27T07:44:16.697Z,41.82
2023-04-27T07:46:44.511Z,42.01
2023-04-27T07:49:14.897Z,41.70
2023-04-27T07:51:43.709Z,42.04
2023-04-27T07:54:11.009Z,42.25
2023-04-27T07:56:42.688Z,41.99
2023-04-27T07:59:10.138Z,42.50
2023-04-27T08:01:38.890Z,41.92
2023-04-27T08:04:08.685Z,42.29
2023-04-27T08:07:08.924Z,42.02
2023-04-27T08:09:48.131Z,41.90
2023-04-27T08:12:29.151Z,41.93
2023-04-27T08:14:58.369Z,41.86
2023-04-27T08:17:28.874Z,42.18
2023-04-27T08:19:56.239Z,41.92
2023-04-27T08:22:23.512Z,42.13
2023-04-27T08:24:54.547Z,42.06
2023-04-27T08:27:36.971Z,41.93
2023-04-27T08:30:19.496Z,42.29
2023-04-27T08:32:53.513Z,42.28
2023-04-27T08:35:21.588Z,42.11
2023-04-27T08:38:11.274Z,42.08
2023-04-27T08:41:20.352Z,41.73
2023-04-27T08:43:51.994Z,41.36
2023-04-27T08:46:21.562Z,41.49
2023-04-27T08:48:52.841Z,39.26
2023-04-27T08:51:20.852Z,36.19
2023-04-27T08:53:53.064Z,34.92
2023-04-27T08:56:29.657Z,34.56
2023-04-27T08:59:02.387Z,34.62
2023-04-27T09:01:29.637Z,33.77
2023-04-27T09:03:58.832Z,33.72
2023-04-27T09:06:31.285Z,33.82
2023-04-27T09:11:47.725Z,34.26
2023-04-27T09:14:18.634Z,34.40
2023-04-27T09:16:46.519Z,35.11
2023-04-27T09:19:24.639Z,35.18
2023-04-27T09:21:52.447Z,35.35
2023-04-27T09:24:19.467Z,35.62
2023-04-27T09:26:52.379Z,36.18
2023-04-27T09:29:23.253Z,36.41
2023-04-27T09:31:50.427Z,36.16
2023-04-27T09:34:18.119Z,36.22
2023-04-27T09:37:39.233Z,36.63
2023-04-27T09:40:11.763Z,36.66
2023-04-27T09:42:40.099Z,36.58
2023-04-27T09:45:07.778Z,36.33
2023-04-27T09:47:35.220Z,36.62
2023-04-27T09:50:08.551Z,36.45
2023-04-27T09:52:35.924Z,36.29
2023-04-27T09:55:04.300Z,36.41
2023-04-27T09:57:39.350Z,36.27
2023-04-27T10:00:11.982Z,36.45
2023-04-27T10:02:53.203Z,35.70
2023-04-27T10:05:31.875Z,35.97
2023-04-27T10:07:59.572Z,36.19
2023-04-27T10:10:27.449Z,35.99
2023-04-27T10:12:58.573Z,35.73
2023-04-27T10:15:33.317Z,36.01
2023-04-27T10:18:05.310Z,36.15
2023-04-27T10:20:33.583Z,35.91
2023-04-27T10:23:01.678Z,36.01
2023-04-27T10:25:30.462Z,36.54
2023-04-27T10:28:00.045Z,36.31
2023-04-27T10:30:51.405Z,36.67
2023-04-27T10:33:20.215Z,36.40
2023-04-27T10:35:56.353Z,36.67
2023-04-27T10:38:28.424Z,36.25
2023-04-27T10:40:58.122Z,36.53
2023-04-27T10:43:27.237Z,36.53
2023-04-27T10:45:55.252Z,36.51
2023-04-27T10:48:23.090Z,36.71
2023-04-27T10:50:52.522Z,36.73
2023-04-27T10:53:21.042Z,37.00
2023-04-27T10:55:48.526Z,36.99
2023-04-27T10:58:15.790Z,37.02
2023-04-27T11:00:47.141Z,37.03
2023-04-27T11:03:21.634Z,36.79
2023-04-27T11:05:50.382Z,37.18
2023-04-27T11:08:18.915Z,36.68
2023-04-27T11:11:13.863Z,36.56
2023-04-27T11:13:44.551Z,36.99
2023-04-27T11:16:53.760Z,36.93
2023-04-27T11:19:26.493Z,36.85
2023-04-27T11:21:53.872Z,36.71
2023-04-27T11:24:44.830Z,36.80
2023-04-27T11:27:12.621Z,36.93
2023-04-27T11:29:43.224Z,36.78
2023-04-27T11:32:19.793Z,36.60
2023-04-27T11:34:58.369Z,36.54
2023-04-27T11:40:20.738Z,36.47
2023-04-27T11:43:23.271Z,36.83
2023-04-27T11:45:50.970Z,36.50
2023-04-27T11:48:24.972Z,36.85
2023-04-27T11:50:58.637Z,36.39
2023-04-27T11:53:35.691Z,36.93
2023-04-27T11:56:07.707Z,37.25
2023-04-27T11:58:39.921Z,36.82
2023-04-27T12:01:07.961Z,36.90
2023-04-27T12:03:35.880Z,36.66
2023-04-27T12:06:21.647Z,36.50
2023-04-27T12:08:51.122Z,36.42
2023-04-27T12:11:46.971Z,36.97
2023-04-27T12:14:10.561Z,37.03
2023-04-27T12:16:38.235Z,36.44
2023-04-27T12:19:05.708Z,36.75
2023-04-27T12:21:35.527Z,36.64
2023-04-27T12:24:03.206Z,36.75
2023-04-27T12:26:31.201Z,36.78
2023-04-27T12:28:58.972Z,36.99
2023-04-27T12:31:27.842Z,37.13
2023-04-27T12:33:55.458Z,37.34
2023-04-27T12:36:28.186Z,37.28
2023-04-27T12:38:59.447Z,36.73
2023-04-27T12:41:27.128Z,36.59
2023-04-27T12:43:54.827Z,36.62
2023-04-27T12:49:11.366Z,36.59
2023-04-27T12:51:39.209Z,36.62
2023-04-27T12:54:07.931Z,36.96
2023-04-27T12:57:07.307Z,36.98
2023-04-27T12:59:35.046Z,36.64
2023-04-27T13:02:07.767Z,36.91
2023-04-27T13:04:35.865Z,37.14
2023-04-27T13:07:04.248Z,36.76
2023-04-27T13:09:31.697Z,37.05
2023-04-27T13:12:01.403Z,36.95
2023-04-27T13:14:29.621Z,37.03
2023-04-27T13:16:57.458Z,36.99
2023-04-27T13:19:24.799Z,36.72
2023-04-27T13:21:54.911Z,36.83
2023-04-27T13:24:23.303Z,36.70
2023-04-27T13:26:50.912Z,37.02
2023-04-27T13:29:19.444Z,36.85
2023-04-27T13:31:47.328Z,37.32
2023-04-27T13:34:15.852Z,37.39
2023-04-27T13:36:43.600Z,37.03
2023-04-27T13:39:10.979Z,37.25
2023-04-27T13:41:38.682Z,37.07
2023-04-27T13:44:05.990Z,37.15
2023-04-27T13:46:37.115Z,37.15
2023-04-27T13:49:04.578Z,37.23
2023-04-27T13:51:34.055Z,37.17
2023-04-27T13:54:03.391Z,37.20
2023-04-27T13:56:36.799Z,36.95
2023-04-27T13:59:04.732Z,37.03
2023-04-27T14:01:32.149Z,37.01
2023-04-27T14:04:00.503Z,37.01
2023-04-27T14:06:31.288Z,37.39
2023-04-27T14:08:58.842Z,37.27
2023-04-27T14:11:29.840Z,37.29
2023-04-27T14:13:57.119Z,37.13
2023-04-27T14:16:25.885Z,37.64
2023-04-27T14:18:57.230Z,37.69
2023-04-27T14:21:25.184Z,37.52
2023-04-27T14:23:52.512Z,37.77
2023-04-27T14:26:24.921Z,37.57
2023-04-27T14:28:52.270Z,37.75
2023-04-27T14:31:20.149Z,38.00
2023-04-27T14:33:48.454Z,37.90
2023-04-27T14:36:18.977Z,38.22
2023-04-27T14:38:46.701Z,37.88
2023-04-27T14:41:14.252Z,38.38
2023-04-27T14:43:42.553Z,38.10
2023-04-27T14:46:21.398Z,38.17
2023-04-27T14:48:49.532Z,38.57
2023-04-27T14:51:17.297Z,38.52
2023-04-27T14:53:45.422Z,38.74
2023-04-27T14:56:16.448Z,38.45
2023-04-27T14:58:43.865Z,38.88
2023-04-27T15:01:14.624Z,38.78
2023-04-27T15:03:42.395Z,38.96
2023-04-27T15:06:16.383Z,38.95
2023-04-27T15:08:43.945Z,38.98
2023-04-27T15:11:11.698Z,39.13
2023-04-27T15:13:39.063Z,38.99
2023-04-27T15:16:32.225Z,38.88
2023-04-27T15:19:01.572Z,39.09
2023-04-27T15:21:29.220Z,39.00
2023-04-27T15:23:56.977Z,39.23
2023-04-27T15:26:33.702Z,39.21
2023-04-27T15:29:01.808Z,39.20
2023-04-27T15:31:31.676Z,39.31
2023-04-27T15:33:59.422Z,39.46
2023-04-27T15:36:29.384Z,39.54
2023-04-27T15:38:57.219Z,39.12
2023-04-27T15:41:24.571Z,39.58
2023-04-27T15:43:52.435Z,39.38
2023-04-27T15:46:20.212Z,39.22
2023-04-27T15:48:47.635Z,39.46
2023-04-27T15:51:17.160Z,39.63
2023-04-27T15:53:44.908Z,39.58
2023-04-27T15:58:59.054Z,39.49
2023-04-27T16:01:26.997Z,40.04
2023-04-27T16:03:54.571Z,39.76
2023-04-27T16:06:42.087Z,39.99
2023-04-27T16:09:10.730Z,39.71
2023-04-27T16:11:39.714Z,40.00
2023-04-27T16:14:07.304Z,39.70
2023-04-27T16:16:35.470Z,39.99
2023-04-27T16:19:02.873Z,39.92
2023-04-27T16:21:30.941Z,39.83
2023-04-27T16:23:58.354Z,39.84
2023-04-27T16:26:27.820Z,39.88
2023-04-27T16:28:58.530Z,39.98
2023-04-27T16:31:27.872Z,40.18
2023-04-27T16:33:55.645Z,40.21
2023-04-27T16:36:36.749Z,40.12
2023-04-27T16:39:05.805Z,40.21
2023-04-27T16:41:34.019Z,40.65
2023-04-27T16:44:01.613Z,40.33
2023-04-27T16:46:37.917Z,40.71
2023-04-27T16:49:24.710Z,40.38
2023-04-27T16:52:07.639Z,40.79
2023-04-27T16:55:02.756Z,40.67
2023-04-27T16:57:46.957Z,41.01
2023-04-27T17:00:29.338Z,40.62
2023-04-27T17:08:50.747Z,41.33
2023-04-27T17:11:20.337Z,41.03
2023-04-27T17:13:50.690Z,40.91
2023-04-27T17:16:23.261Z,41.34
2023-04-27T17:18:53.435Z,41.32
2023-04-27T17:21:23.611Z,41.06
2023-04-27T17:23:52.987Z,41.52
2023-04-27T17:26:23.678Z,41.31
2023-04-27T17:28:52.433Z,41.19
2023-04-27T17:31:20.964Z,41.67
2023-04-27T17:33:49.144Z,41.38
2023-04-27T17:36:18.304Z,41.67
2023-04-27T17:38:47.404Z,41.66
2023-04-27T17:41:15.319Z,41.66
2023-04-27T17:43:43.183Z,41.43
2023-04-27T17:46:15.421Z,41.81
2023-04-27T17:48:43.858Z,41.59
2023-04-27T17:51:12.455Z,41.46
2023-04-27T17:53:39.865Z,41.88
2023-04-27T17:56:09.440Z,41.71
2023-04-27T17:58:36.996Z,41.66
2023-04-27T18:01:08.468Z,41.67
2023-04-27T18:03:36.945Z,41.75
2023-04-27T18:06:04.798Z,42.07
2023-04-27T18:08:32.208Z,41.96
2023-04-27T18:10:59.576Z,41.61
2023-04-27T18:13:27.763Z,41.84
2023-04-27T18:15:55.178Z,41.86
2023-04-27T18:18:25.099Z,41.85
2023-04-27T18:20:52.661Z,41.77
2023-04-27T18:23:20.301Z,41.90
2023-04-27T18:25:47.849Z,42.04
2023-04-27T18:28:15.054Z,41.84
2023-04-27T18:30:42.569Z,42.09
2023-04-27T18:33:09.740Z,41.88
2023-04-27T18:35:37.508Z,42.00
2023-04-27T18:38:04.799Z,42.41
2023-04-27T18:40:32.256Z,42.45
2023-04-27T18:42:59.830Z,42.10
2023-04-27T18:45:27.524Z,42.23
2023-04-27T18:47:55.033Z,42.38
2023-04-27T18:50:22.188Z,42.29
2023-04-27T18:52:49.358Z,42.22
2023-04-27T18:55:18.235Z,42.33
2023-04-27T18:57:46.006Z,42.61
2023-04-27T19:00:14.249Z,42.49
2023-04-27T19:02:41.531Z,42.77
2023-04-27T19:05:12.854Z,42.52
2023-04-27T19:07:41.150Z,42.51
2023-04-27T19:10:09.213Z,42.57
2023-04-27T19:12:36.459Z,42.68
2023-04-27T19:15:04.084Z,42.83
2023-04-27T19:17:31.777Z,43.00
2023-04-27T19:19:59.165Z,43.01
2023-04-27T19:22:27.646Z,42.57
2023-04-27T19:24:54.838Z,42.89
2023-04-27T19:27:22.460Z,43.05
2023-04-27T19:29:51.674Z,42.59
2023-04-27T19:32:20.076Z,42.84
2023-04-27T19:34:50.524Z,42.82
2023-04-27T19:37:17.714Z,43.19
2023-04-27T19:39:44.928Z,42.90
2023-04-27T19:42:15.765Z,43.17
2023-04-27T19:44:42.976Z,42.96
2023-04-27T19:47:11.476Z,43.17
2023-04-27T19:49:38.989Z,43.13
2023-04-27T19:52:06.923Z,43.29
2023-04-27T19:54:34.170Z,43.34
2023-04-27T19:57:01.730Z,43.53
2023-04-27T19:59:30.961Z,43.38
2023-04-27T20:01:58.087Z,43.20
2023-04-27T20:04:25.572Z,43.71
2023-04-27T20:06:53.772Z,43.63
2023-04-27T20:09:23.329Z,43.56
2023-04-27T20:11:50.449Z,43.83
2023-04-27T20:14:18.033Z,43.93
2023-04-27T20:16:45.357Z,43.75
2023-04-27T20:19:12.818Z,43.56
2023-04-27T20:21:39.826Z,43.70
2023-04-27T20:24:07.709Z,43.89
2023-04-27T20:26:34.864Z,44.29
2023-04-27T20:29:01.985Z,44.34
2023-04-27T20:31:29.132Z,44.30
2023-04-27T20:33:56.318Z,43.92
2023-04-27T20:36:26.693Z,43.96
2023-04-27T20:38:54.019Z,44.04
2023-04-27T20:41:22.905Z,44.26
2023-04-27T20:43:52.955Z,44.32
2023-04-27T20:46:20.657Z,44.42
2023-04-27T20:48:47.857Z,44.45
2023-04-27T20:51:15.048Z,44.65
2023-04-27T20:53:42.274Z,44.37
2023-04-27T20:56:10.239Z,44.59
2023-04-27T20:58:37.315Z,44.26
2023-04-27T21:01:04.439Z,44.60
2023-04-27T21:03:32.107Z,44.36
2023-04-27T21:05:59.621Z,44.45
2023-04-27T21:08:26.760Z,44.61
2023-04-27T21:10:53.826Z,44.29
2023-04-27T21:13:21.241Z,44.53
2023-04-27T21:15:48.497Z,44.44
2023-04-27T21:18:29.192Z,44.50
2023-04-27T21:20:57.295Z,44.39
2023-04-27T21:23:24.726Z,44.51
2023-04-27T21:25:51.687Z,44.75
2023-04-27T21:28:18.770Z,44.94
2023-04-27T21:30:45.956Z,44.69
2023-04-27T21:33:13.148Z,44.94
2023-04-27T21:35:40.355Z,44.65
2023-04-27T21:38:07.389Z,44.85
2023-04-27T21:40:34.482Z,45.08
2023-04-27T21:43:01.732Z,45.08
2023-04-27T21:45:28.862Z,45.23
2023-04-27T21:47:56.012Z,45.32
2023-04-27T21:50:22.916Z,45.64
2023-04-27T21:52:49.929Z,46.90
2023-04-27T21:55:16.944Z,47.67
2023-04-27T21:57:46.978Z,46.49
2023-04-27T22:00:14.645Z,46.64
2023-04-27T22:02:43.090Z,46.44
2023-04-27T22:05:12.881Z,46.63
2023-04-27T22:07:40.237Z,47.19
2023-04-27T22:10:08.156Z,47.44
2023-04-27T22:12:35.980Z,46.99
2023-04-27T22:15:04.271Z,47.47
2023-04-27T22:17:31.420Z,47.20
2023-04-27T22:19:59.032Z,47.26
2023-04-27T22:22:26.166Z,47.05
2023-04-27T22:24:53.561Z,47.01
2023-04-27T22:27:21.128Z,47.33
2023-04-27T22:29:48.107Z,47.01
2023-04-27T22:32:17.502Z,46.88
2023-04-27T22:34:45.235Z,46.52
2023-04-27T22:37:12.205Z,46.78
2023-04-27T22:39:39.371Z,46.87
2023-04-27T22:42:06.536Z,46.44
2023-04-27T22:44:33.541Z,46.24
2023-04-27T22:47:02.729Z,46.54
2023-04-27T22:49:29.835Z,46.33
2023-04-27T22:51:58.020Z,46.35
2023-04-27T22:54:25.366Z,46.42
2023-04-27T22:56:52.310Z,45.91
2023-04-27T22:59:23.542Z,45.92
2023-04-27T23:01:50.622Z,46.17
2023-04-27T23:04:19.591Z,45.90
2023-04-27T23:06:46.948Z,45.65
2023-04-27T23:09:14.623Z,45.80
2023-04-27T23:11:41.832Z,45.74
2023-04-27T23:14:08.978Z,45.95
2023-04-27T23:16:36.175Z,45.69
2023-04-27T23:19:03.298Z,45.43
2023-04-27T23:21:30.383Z,45.60
2023-04-27T23:23:57.342Z,45.45
2023-04-27T23:26:24.310Z,45.68
2023-04-27T23:28:51.244Z,45.79
2023-04-27T23:31:18.520Z,45.32
2023-04-27T23:33:45.503Z,45.33
2023-04-27T23:36:12.519Z,45.55
2023-04-27T23:38:39.511Z,45.45
2023-04-27T23:41:06.458Z,45.37
2023-04-27T23:43:34.452Z,45.45
2023-04-27T23:46:01.432Z,45.24
2023-04-27T23:48:28.384Z,45.52
2023-04-27T23:50:59.248Z,45.61
2023-04-27T23:53:26.896Z,45.39
2023-04-27T23:55:53.825Z,45.38
2023-04-27T23:58:20.851Z,45.45
